Time;durP1;ratioP1;P1;durP2;ratioP2;P2;SDS_P1;SDS_P2;PMS_P1;PMS_P2;Temp;Humidity;BMP_temperature;BMP_pressure;BME280_temperature;BME280_humidity;BME280_pressure;Samples;Min_cycle;Max_cycle;Signal;HPM_P1;HPM_P2
2021/04/18 00:01:19;;;;;;;60.60;51.25;;;;;;;7.76;77.24;100778.44;122075;1152;22546;-73
2021/04/18 00:03:47;;;;;;;60.60;53.10;;;;;;;7.75;77.30;100776.75;121901;1157;22560;-73
2021/04/18 00:06:17;;;;;;;65.40;55.18;;;;;;;7.75;77.37;100775.92;121543;1155;22599;-73
2021/04/18 00:08:45;;;;;;;56.73;50.35;;;;;;;7.75;77.32;100787.27;121537;1156;22835;-72
2021/04/18 00:11:15;;;;;;;61.65;51.50;;;;;;;7.74;77.27;100788.25;121499;1155;23033;-72
2021/04/18 00:13:46;;;;;;;58.43;50.55;;;;;;;7.72;77.17;100791.98;121571;1155;22544;-72
2021/04/18 00:16:14;;;;;;;58.43;49.38;;;;;;;7.72;77.32;100786.72;121583;1155;22594;-73
2021/04/18 00:18:43;;;;;;;56.63;48.50;;;;;;;7.69;77.20;100782.56;121450;1158;22563;-73
2021/04/18 00:21:12;;;;;;;60.03;49.43;;;;;;;7.68;77.42;100780.91;121512;1155;25385;-73
2021/04/18 00:23:40;;;;;;;56.20;47.50;;;;;;;7.66;77.42;100776.75;121924;1156;24693;-75
2021/04/18 00:26:08;;;;;;;53.35;47.60;;;;;;;7.67;77.52;100778.44;121962;1155;22546;-74
2021/04/18 00:28:36;;;;;;;53.38;46.30;;;;;;;7.67;77.59;100771.38;121893;1156;22538;-75
2021/04/18 00:31:05;;;;;;;54.08;47.15;;;;;;;7.68;77.48;100773.02;121969;1156;22546;-73
2021/04/18 00:33:33;;;;;;;54.77;47.77;;;;;;;7.71;77.67;100774.55;121939;1155;22704;-73
2021/04/18 00:36:04;;;;;;;58.45;47.48;;;;;;;7.70;77.59;100778.98;121951;1154;24924;-73
2021/04/18 00:38:34;;;;;;;52.67;46.93;;;;;;;7.69;77.64;100779.11;122167;1155;22629;-73
2021/04/18 00:41:04;;;;;;;51.95;45.88;;;;;;;7.70;77.70;100778.16;122359;1152;22534;-74
2021/04/18 00:43:33;;;;;;;51.65;46.10;;;;;;;7.72;77.63;100778.83;122061;1153;22526;-74
2021/04/18 00:46:02;;;;;;;53.63;47.78;;;;;;;7.73;77.66;100768.19;122066;1152;24412;-74
2021/04/18 00:48:30;;;;;;;55.50;46.85;;;;;;;7.73;77.58;100768.19;122263;1152;23538;-74
2021/04/18 00:50:58;;;;;;;53.03;47.25;;;;;;;7.71;77.54;100770.12;122052;1153;24712;-73
2021/04/18 00:53:27;;;;;;;53.03;47.40;;;;;;;7.72;77.78;100765.69;122244;1153;25638;-75
2021/04/18 00:55:55;;;;;;;59.13;50.53;;;;;;;7.74;77.71;100763.76;122064;1152;22535;-73
2021/04/18 00:58:23;;;;;;;54.45;48.60;;;;;;;7.73;77.72;100768.19;121979;1155;24696;-75
2021/04/18 01:00:52;;;;;;;62.33;49.73;;;;;;;7.72;77.74;100755.16;120989;1158;24802;-73
2021/04/18 01:03:20;;;;;;;63.83;49.15;;;;;;;7.72;77.84;100769.14;121047;1157;23445;-73
2021/04/18 01:05:49;;;;;;;55.08;48.73;;;;;;;7.70;77.84;100757.95;121053;1159;22582;-74
2021/04/18 01:08:18;;;;;;;56.27;50.37;;;;;;;7.72;77.97;100763.05;121078;1160;22560;-74
2021/04/18 01:10:46;;;;;;;60.58;50.75;;;;;;;7.72;78.21;100768.31;121045;1159;22564;-75
2021/04/18 01:13:14;;;;;;;56.98;50.90;;;;;;;7.72;78.08;100766.51;121462;1157;22562;-74
2021/04/18 01:15:43;;;;;;;58.43;49.05;;;;;;;7.71;77.88;100761.41;121085;1157;24472;-73
2021/04/18 01:18:14;;;;;;;57.90;51.57;;;;;;;7.68;77.88;100764.31;121535;1152;22559;-74
2021/04/18 01:20:43;;;;;;;60.48;50.40;;;;;;;7.65;77.72;100752.27;122249;1152;25720;-74
2021/04/18 01:23:27;;;;;;;58.10;50.78;;;;;;;7.62;77.83;100755.16;122138;1151;22533;-73
2021/04/18 01:26:10;;;;;;;60.95;50.25;;;;;;;7.58;77.79;100743.27;122104;1152;22524;-73
2021/04/18 01:28:39;;;;;;;57.85;50.28;;;;;;;7.57;78.03;100738.99;122237;1153;22623;-73
2021/04/18 01:31:08;;;;;;;58.15;48.58;;;;;;;7.58;78.29;100747.70;122347;1152;22524;-72
2021/04/18 01:33:37;;;;;;;56.73;50.58;;;;;;;7.58;78.31;100748.53;122100;1152;22528;-73
2021/04/18 01:36:08;;;;;;;52.20;46.73;;;;;;;7.55;78.14;100749.63;122292;1155;22540;-73
2021/04/18 01:38:38;;;;;;;58.35;46.18;;;;;;;7.52;78.20;100743.82;122068;1154;22530;-72
2021/04/18 01:41:09;;;;;;;55.60;48.03;;;;;;;7.51;78.30;100742.17;122038;1152;24376;-72
2021/04/18 01:43:39;;;;;;;55.20;47.05;;;;;;;7.49;78.27;100738.84;122099;1153;22623;-73
2021/04/18 01:46:10;;;;;;;52.30;46.75;;;;;;;7.49;78.26;100741.47;122117;1151;22631;-73
2021/04/18 01:48:42;;;;;;;54.73;47.85;;;;;;;7.50;78.39;100740.52;122312;1152;22528;-73
2021/04/18 01:51:11;;;;;;;;;;;;;;;7.46;78.30;100742.59;121943;1157;22554;-73
2021/04/18 01:53:41;;;;;;;51.93;45.00;;;;;;;7.42;78.61;100740.36;121929;1155;22120;-73
2021/04/18 01:56:11;;;;;;;51.73;46.18;;;;;;;7.44;78.77;100744.52;121426;1156;22786;-74
2021/04/18 01:58:40;;;;;;;52.23;46.55;;;;;;;7.45;79.04;100740.09;121414;1158;23394;-74
2021/04/18 02:01:40;;;;;;;52.73;47.38;;;;;;;7.45;78.76;100743.54;121182;1158;23584;-73
2021/04/18 02:04:26;;;;;;;57.33;49.28;;;;;;;7.47;78.86;100741.62;121421;1158;24719;-73
2021/04/18 02:07:04;;;;;;;53.83;48.53;;;;;;;7.49;78.77;100744.92;121459;1158;22636;-73
2021/04/18 02:09:36;;;;;;;56.50;47.38;;;;;;;7.51;78.99;100736.91;121510;1155;22695;-74
2021/04/18 02:12:08;;;;;;;53.28;44.45;;;;;;;7.53;79.15;100734.95;121540;1155;23607;-73
2021/04/18 02:14:41;;;;;;;54.13;46.95;;;;;;;7.53;78.93;100737.59;122059;1152;22533;-73
2021/04/18 02:17:16;;;;;;;53.78;48.03;;;;;;;7.57;79.08;100735.54;122066;1152;22538;-75
2021/04/18 02:19:45;;;;;;;55.20;49.20;;;;;;;7.57;78.90;100736.36;122021;1152;22527;-75
2021/04/18 02:22:13;;;;;;;52.53;46.93;;;;;;;7.58;78.86;100738.02;122049;1152;22589;-73
2021/04/18 02:24:45;;;;;;;53.85;48.23;;;;;;;7.59;78.96;100733.58;122055;1152;24680;-72
2021/04/18 02:27:14;;;;;;;55.05;47.23;;;;;;;7.60;78.82;100722.09;122095;1152;22585;-74
2021/04/18 02:29:56;;;;;;;53.20;46.98;;;;;;;7.60;78.86;100724.72;122024;1154;24819;-73
2021/04/18 02:32:26;;;;;;;53.75;46.50;;;;;;;7.60;78.99;100719.45;122050;1152;22559;-74
2021/04/18 02:35:01;;;;;;;53.28;47.68;;;;;;;7.60;79.05;100716.83;122115;1155;25266;-74
2021/04/18 02:37:31;;;;;;;51.77;46.27;;;;;;;7.59;78.74;100713.38;122052;1153;23160;-74
2021/04/18 02:40:00;;;;;;;55.07;49.03;;;;;;;7.59;78.84;100710.74;122007;1152;22570;-74
2021/04/18 02:42:28;;;;;;;51.55;45.50;;;;;;;7.59;78.88;100716.00;122037;1153;22534;-73
2021/04/18 02:44:57;;;;;;;53.43;47.05;;;;;;;7.60;79.08;100706.31;122027;1151;22527;-74
2021/04/18 02:47:29;;;;;;;52.28;46.13;;;;;;;7.62;79.09;100707.84;122088;1152;22668;-74
2021/04/18 02:49:58;;;;;;;51.73;46.15;;;;;;;7.62;78.92;100705.20;122062;1152;22528;-72
2021/04/18 02:52:28;;;;;;;52.98;45.75;;;;;;;7.64;79.09;100694.56;121722;1156;22571;-75
2021/04/18 02:54:57;;;;;;;55.75;49.48;;;;;;;7.64;79.08;100707.71;121556;1157;24698;-74
2021/04/18 02:57:26;;;;;;;52.73;46.90;;;;;;;7.63;78.94;100704.27;121015;1158;22839;-74
2021/04/18 02:59:55;;;;;;;57.53;48.05;;;;;;;7.64;79.00;100702.45;121355;1158;22974;-76
2021/04/18 03:02:24;;;;;;;53.97;47.87;;;;;;;7.62;78.82;100697.32;121467;1158;22776;-75
2021/04/18 03:04:57;;;;;;;56.17;49.67;;;;;;;7.58;78.54;100695.95;121412;1159;22621;-74
2021/04/18 03:07:26;;;;;;;61.53;52.98;;;;;;;7.54;79.12;100690.14;121394;1159;22564;-74
2021/04/18 03:09:55;;;;;;;61.70;54.15;;;;;;;7.54;78.72;100699.83;121461;1155;22569;-74
2021/04/18 03:12:24;;;;;;;57.53;51.25;;;;;;;7.52;78.88;100697.33;121550;1155;22552;-73
2021/04/18 03:14:57;;;;;;;59.80;52.73;;;;;;;7.51;78.90;100693.05;121969;1155;22542;-75
2021/04/18 03:17:26;;;;;;;62.28;55.15;;;;;;;7.51;79.00;100692.22;121989;1156;22541;-72
2021/04/18 03:20:05;;;;;;;56.65;50.38;;;;;;;7.51;79.07;100695.67;121644;1155;22655;-73
2021/04/18 03:22:35;;;;;;;60.17;53.43;;;;;;;7.54;79.21;100695.40;121594;1155;22582;-73
2021/04/18 03:25:04;;;;;;;63.65;56.45;;;;;;;7.55;78.78;100694.42;121672;1155;25631;-73
2021/04/18 03:27:33;;;;;;;56.78;50.98;;;;;;;7.58;79.22;100697.75;121623;1155;22557;-73
2021/04/18 03:30:06;;;;;;;64.25;57.30;;;;;;;7.59;79.25;100697.59;121586;1155;23400;-74
2021/04/18 03:32:36;;;;;;;64.30;56.18;;;;;;;7.61;79.10;100692.22;121473;1158;22652;-73
2021/04/18 03:35:08;;;;;;;63.43;56.50;;;;;;;7.63;79.00;100695.52;121553;1155;24445;-75
2021/04/18 03:37:36;;;;;;;60.68;54.05;;;;;;;7.64;78.96;100697.20;122002;1155;25153;-76
2021/04/18 03:40:07;;;;;;;61.25;54.55;;;;;;;7.65;78.98;100698.84;122057;1156;25166;-72
2021/04/18 03:42:36;;;;;;;66.03;59.23;;;;;;;7.65;78.87;100704.11;121982;1155;22537;-73
2021/04/18 03:45:06;;;;;;;67.88;57.20;;;;;;;7.65;78.98;100701.48;122009;1156;22547;-74
2021/04/18 03:47:35;;;;;;;70.03;60.03;;;;;;;7.63;78.86;100704.27;122121;1155;23125;-74
2021/04/18 03:50:08;;;;;;;64.85;57.90;;;;;;;7.63;78.80;100700.77;122037;1152;22557;-75
2021/04/18 03:52:56;;;;;;;64.93;58.23;;;;;;;7.61;78.87;100695.67;122124;1152;22528;-73
2021/04/18 03:55:27;;;;;;;66.23;58.63;;;;;;;7.62;79.00;100710.47;122187;1153;23409;-72
2021/04/18 03:57:56;;;;;;;66.13;59.18;;;;;;;7.62;78.89;100697.32;122124;1152;24671;-73
2021/04/18 04:00:24;;;;;;;64.38;57.43;;;;;;;7.63;78.76;100708.66;122143;1152;22530;-73
2021/04/18 04:03:00;;;;;;;61.98;55.35;;;;;;;7.61;78.81;100703.55;122240;1149;22527;-72
2021/04/18 04:05:32;;;;;;;63.25;56.63;;;;;;;7.61;78.92;100702.73;122184;1152;22567;-73
2021/04/18 04:08:06;;;;;;;61.60;54.83;;;;;;;7.61;78.95;100705.36;121991;1155;22532;-74
2021/04/18 04:10:37;;;;;;;61.55;54.55;;;;;;;7.62;78.88;100710.47;121740;1156;23450;-72
2021/04/18 04:13:06;;;;;;;57.45;51.20;;;;;;;7.63;78.96;100706.89;121488;1159;23499;-72
2021/04/18 04:15:35;;;;;;;58.83;52.63;;;;;;;7.65;78.96;100709.36;121416;1157;22558;-73
2021/04/18 04:18:05;;;;;;;61.13;54.80;;;;;;;7.68;78.97;100716.98;121518;1158;23483;-73
2021/04/18 04:20:58;;;;;;;57.50;51.23;;;;;;;7.69;79.01;100719.45;121595;1157;22598;-73
2021/04/18 04:23:44;;;;;;;60.80;54.53;;;;;;;7.70;78.97;100723.77;121622;1156;22570;-73
2021/04/18 04:26:12;;;;;;;56.40;50.50;;;;;;;7.71;79.00;100727.22;121562;1155;22551;-74
2021/04/18 04:28:41;;;;;;;58.80;51.53;;;;;;;7.74;78.82;100726.94;122032;1155;22637;-72
2021/04/18 04:31:09;;;;;;;59.90;53.53;;;;;;;7.76;78.65;100731.09;122113;1152;23786;-72
2021/04/18 04:33:38;;;;;;;61.83;55.50;;;;;;;7.77;78.90;100724.86;122223;1153;22521;-74
2021/04/18 04:36:08;;;;;;;62.15;55.40;;;;;;;7.76;78.74;100723.20;122406;1152;24673;-72
2021/04/18 04:38:36;;;;;;;60.13;53.85;;;;;;;7.73;78.55;100730.52;122196;1153;24722;-72
2021/04/18 04:41:04;;;;;;;63.03;56.33;;;;;;;7.71;78.67;100722.78;122190;1153;23194;-72
2021/04/18 04:43:33;;;;;;;67.08;60.05;;;;;;;7.69;78.56;100719.45;122346;1151;22530;-72
2021/04/18 04:46:02;;;;;;;63.43;56.60;;;;;;;7.64;78.50;100726.13;122448;1152;22530;-72
2021/04/18 04:48:31;;;;;;;69.83;61.93;;;;;;;7.59;78.70;100726.52;122160;1152;22610;-73
2021/04/18 04:51:00;;;;;;;67.55;60.63;;;;;;;7.59;78.74;100726.52;122441;1152;22977;-73
2021/04/18 04:53:28;;;;;;;69.00;62.10;;;;;;;7.64;78.97;100726.95;122192;1154;22559;-73
2021/04/18 04:55:56;;;;;;;68.88;62.03;;;;;;;7.69;79.03;100729.97;122346;1152;22539;-73
2021/04/18 04:58:25;;;;;;;67.48;60.18;;;;;;;7.72;78.91;100728.87;122397;1152;22546;-74
2021/04/18 05:00:53;;;;;;;70.13;62.60;;;;;;;7.68;78.66;100725.69;122380;1152;22532;-73
2021/04/18 05:03:26;;;;;;;70.00;62.28;;;;;;;7.58;78.35;100730.13;122457;1152;24424;-72
2021/04/18 05:05:55;;;;;;;74.25;66.35;;;;;;;7.45;78.39;100734.83;122404;1152;22664;-75
2021/04/18 05:08:24;;;;;;;81.30;69.57;;;;;;;7.31;78.46;100736.08;121967;1155;24706;-72
2021/04/18 05:10:52;;;;;;;87.25;74.78;;;;;;;7.24;78.82;100734.97;122014;1154;22628;-72
2021/04/18 05:13:20;;;;;;;88.53;75.93;;;;;;;7.21;79.06;100737.86;121710;1155;22670;-72
2021/04/18 05:15:48;;;;;;;92.30;78.33;;;;;;;7.17;78.77;100741.73;121960;1155;22556;-72
2021/04/18 05:18:16;;;;;;;94.70;81.90;;;;;;;7.11;79.11;100737.02;121695;1155;22555;-72
2021/04/18 05:20:45;;;;;;;89.75;75.58;;;;;;;7.07;79.13;100733.84;121984;1155;22547;-72
2021/04/18 05:23:13;;;;;;;94.58;78.38;;;;;;;7.04;79.31;100734.93;122005;1155;25448;-73
2021/04/18 05:25:42;;;;;;;108.77;84.27;;;;;;;7.08;79.88;100732.86;121613;1154;22540;-72
2021/04/18 05:28:10;;;;;;;101.25;84.30;;;;;;;7.17;80.05;100739.11;122193;1152;22524;-72
2021/04/18 05:30:38;;;;;;;103.93;85.63;;;;;;;7.23;79.96;100734.14;122202;1152;22527;-73
2021/04/18 05:33:08;;;;;;;105.83;83.13;;;;;;;7.32;80.04;100732.47;122368;1152;23461;-73
2021/04/18 05:35:36;;;;;;;110.45;84.43;;;;;;;7.35;79.96;100734.83;122183;1152;22626;-73
2021/04/18 05:38:04;;;;;;;99.75;79.70;;;;;;;7.40;79.97;100750.20;122350;1152;22527;-73
2021/04/18 05:40:33;;;;;;;97.93;78.67;;;;;;;7.44;79.98;100743.70;122308;1152;22537;-73
2021/04/18 05:43:02;;;;;;;108.63;81.88;;;;;;;7.52;79.98;100742.02;122193;1152;22518;-73
2021/04/18 05:45:30;;;;;;;98.70;82.65;;;;;;;7.55;79.66;100738.29;122335;1152;22535;-72
2021/04/18 05:47:58;;;;;;;126.65;95.98;;;;;;;7.55;79.70;100741.74;122182;1155;23546;-73
2021/04/18 05:50:27;;;;;;;111.55;88.10;;;;;;;7.60;79.71;100748.38;122179;1152;24429;-73
2021/04/18 05:52:55;;;;;;;107.05;80.75;;;;;;;7.64;79.60;100753.23;122272;1151;23411;-73
2021/04/18 05:55:24;;;;;;;102.55;78.78;;;;;;;7.64;79.36;100749.78;122246;1152;22951;-72
2021/04/18 05:57:52;;;;;;;112.35;80.35;;;;;;;7.59;79.32;100752.81;122363;1152;24690;-72
2021/04/18 06:00:21;;;;;;;103.98;77.60;;;;;;;7.58;79.27;100742.45;122196;1152;22591;-71
2021/04/18 06:02:49;;;;;;;95.63;73.48;;;;;;;7.57;79.28;100746.88;122308;1152;22534;-71
2021/04/18 06:05:18;;;;;;;146.95;90.90;;;;;;;7.58;79.19;100751.16;122380;1152;22583;-71
2021/04/18 06:07:47;;;;;;;144.68;93.15;;;;;;;7.65;79.59;100752.27;122422;1152;22544;-72
2021/04/18 06:10:16;;;;;;;129.88;84.85;;;;;;;7.76;79.80;100753.91;122410;1152;23316;-70
2021/04/18 06:12:44;;;;;;;93.28;72.35;;;;;;;7.87;79.84;100755.59;122193;1152;22617;-75
2021/04/18 06:15:13;;;;;;;132.60;85.83;;;;;;;7.95;79.73;100753.06;122382;1151;23040;-75
2021/04/18 06:17:42;;;;;;;104.58;77.58;;;;;;;7.96;79.32;100754.72;122173;1152;23316;-73
2021/04/18 06:20:11;;;;;;;92.25;74.80;;;;;;;7.98;79.26;100750.98;122184;1152;24676;-74
2021/04/18 06:22:39;;;;;;;89.37;73.60;;;;;;;8.08;79.47;100752.77;122203;1154;22540;-75
2021/04/18 06:25:11;;;;;;;92.98;71.15;;;;;;;8.14;79.40;100746.95;121990;1155;22537;-73
2021/04/18 06:27:39;;;;;;;87.53;74.23;;;;;;;8.21;79.65;100746.23;122021;1155;22605;-74
2021/04/18 06:30:08;;;;;;;95.83;79.38;;;;;;;8.32;79.29;100749.66;121976;1155;22539;-73
2021/04/18 06:32:37;;;;;;;103.55;79.18;;;;;;;8.42;79.35;100758.38;122108;1155;24781;-72
2021/04/18 06:35:07;;;;;;;100.23;82.33;;;;;;;8.44;79.11;100746.75;122015;1155;22538;-73
2021/04/18 06:37:36;;;;;;;98.65;82.83;;;;;;;8.55;79.08;100745.73;121650;1155;23441;-73
2021/04/18 06:40:08;;;;;;;98.68;77.93;;;;;;;8.65;78.73;100749.14;121461;1157;23265;-73
2021/04/18 06:42:37;;;;;;;;;;;;;;;8.62;78.24;100746.80;121593;1158;22562;-72
2021/04/18 06:45:09;;;;;;;102.48;76.10;;;;;;;8.60;78.60;100745.31;121990;1154;23050;-72
2021/04/18 06:47:41;;;;;;;108.35;82.28;;;;;;;8.70;78.69;100759.27;121734;1155;22553;-73
2021/04/18 06:50:11;;;;;;;88.40;76.05;;;;;;;8.78;78.10;100759.35;121722;1155;24511;-71
2021/04/18 06:52:40;;;;;;;94.00;75.50;;;;;;;8.82;78.08;100755.44;121629;1156;22620;-74
2021/04/18 06:55:10;;;;;;;90.92;74.13;;;;;;;8.87;77.69;100750.58;121622;1155;24787;-74
2021/04/18 06:57:38;;;;;;;127.90;88.88;;;;;;;8.91;77.80;100756.38;122033;1155;22531;-72
2021/04/18 07:00:10;;;;;;;116.48;84.48;;;;;;;8.99;77.72;100760.91;121993;1155;22544;-72
2021/04/18 07:02:39;;;;;;;90.03;73.53;;;;;;;9.02;77.35;100756.17;121911;1155;22540;-73
2021/04/18 07:05:13;;;;;;;85.35;72.70;;;;;;;9.08;77.30;100762.66;122203;1152;22541;-74
2021/04/18 07:07:46;;;;;;;92.05;71.05;;;;;;;9.15;76.96;100755.81;122135;1152;22987;-73
2021/04/18 07:10:35;;;;;;;97.95;79.70;;;;;;;9.20;77.01;100766.76;121779;1156;22574;-73
2021/04/18 07:13:13;;;;;;;107.88;83.75;;;;;;;9.24;76.74;100770.75;121683;1155;24610;-74
2021/04/18 07:15:44;;;;;;;104.40;77.05;;;;;;;9.24;76.61;100762.84;122086;1154;22693;-72
2021/04/18 07:18:39;;;;;;;87.80;70.13;;;;;;;9.34;76.98;100766.23;121523;1158;25906;-73
2021/04/18 07:21:08;;;;;;;89.53;73.00;;;;;;;9.56;77.32;100772.89;121478;1157;23345;-73
2021/04/18 07:23:36;;;;;;;82.55;68.98;;;;;;;9.80;77.30;100771.44;121447;1159;24407;-74
2021/04/18 07:26:27;;;;;;;85.70;70.35;;;;;;;10.01;76.71;100782.48;121562;1158;22548;-73
2021/04/18 07:29:17;;;;;;;84.25;71.93;;;;;;;10.13;75.82;100775.16;121830;1154;24360;-72
2021/04/18 07:31:46;;;;;;;83.25;70.15;;;;;;;10.12;74.83;100774.30;121663;1154;23588;-73
2021/04/18 07:34:21;;;;;;;92.88;73.88;;;;;;;10.06;74.06;100776.73;121777;1153;22626;-72
2021/04/18 07:37:05;;;;;;;85.47;72.60;;;;;;;10.02;73.82;100770.94;121894;1152;22632;-72
2021/04/18 07:39:57;;;;;;;94.83;74.95;;;;;;;10.03;74.00;100779.68;122095;1154;22538;-72
2021/04/18 07:42:41;;;;;;;88.70;74.65;;;;;;;10.06;74.18;100779.38;122211;1152;22531;-72
2021/04/18 07:45:16;;;;;;;81.70;69.15;;;;;;;10.08;73.78;100785.34;122150;1152;22616;-74
2021/04/18 07:47:46;;;;;;;75.73;66.50;;;;;;;10.09;73.69;100787.81;122128;1155;22532;-72
2021/04/18 07:50:19;;;;;;;81.08;68.55;;;;;;;10.03;72.94;100790.23;122051;1155;24840;-72
2021/04/18 07:52:49;;;;;;;80.95;69.38;;;;;;;9.93;72.82;100789.50;122056;1155;23083;-72
2021/04/18 07:55:21;;;;;;;85.28;70.43;;;;;;;9.88;73.15;100792.61;121537;1156;25257;-74
2021/04/18 07:57:53;;;;;;;78.98;66.75;;;;;;;9.77;72.88;100792.86;121459;1158;25308;-73
2021/04/18 08:00:23;;;;;;;83.70;69.87;;;;;;;9.75;73.09;100800.08;121145;1158;22560;-74
2021/04/18 08:02:53;;;;;;;78.38;65.63;;;;;;;9.68;73.30;100802.49;120885;1162;22573;-74
2021/04/18 08:05:31;;;;;;;67.20;59.70;;;;;;;9.63;73.26;100808.23;120942;1161;22698;-73
2021/04/18 08:08:06;;;;;;;80.17;67.90;;;;;;;9.57;73.42;100806.19;120926;1163;22580;-73
2021/04/18 08:10:41;;;;;;;64.38;57.53;;;;;;;9.54;73.40;100809.13;121085;1163;22569;-73
2021/04/18 08:13:26;;;;;;;73.60;65.50;;;;;;;9.57;73.72;100813.28;121237;1158;22558;-72
2021/04/18 08:16:01;;;;;;;73.88;65.05;;;;;;;9.60;73.89;100802.43;121315;1159;22568;-73
2021/04/18 08:18:40;;;;;;;80.15;65.53;;;;;;;9.68;73.96;100810.41;121482;1158;22559;-74
2021/04/18 08:21:36;;;;;;;67.15;58.78;;;;;;;9.78;74.11;100802.42;122243;1154;24686;-74
2021/04/18 08:24:09;;;;;;;68.43;58.37;;;;;;;9.88;74.10;100806.63;122226;1152;22540;-75
2021/04/18 08:26:37;;;;;;;60.40;53.83;;;;;;;9.98;74.13;100800.44;122061;1155;22569;-74
2021/04/18 08:29:09;;;;;;;66.25;54.83;;;;;;;10.11;73.93;100808.80;121723;1155;22613;-74
2021/04/18 08:31:49;;;;;;;58.20;51.85;;;;;;;10.17;73.47;100805.55;121639;1155;24709;-75
2021/04/18 08:34:44;;;;;;;53.15;45.95;;;;;;;10.22;73.35;100802.43;122024;1156;22632;-73
2021/04/18 08:37:17;;;;;;;46.20;41.23;;;;;;;10.31;72.92;100806.83;121434;1158;22575;-74
2021/04/18 08:39:46;;;;;;;39.95;35.73;;;;;;;10.38;72.67;100814.95;121428;1159;23186;-73
2021/04/18 08:42:28;;;;;;;35.35;31.58;;;;;;;10.41;72.24;100817.29;121438;1158;22567;-74
2021/04/18 08:44:58;;;;;;;37.18;32.95;;;;;;;10.33;71.73;100816.26;121589;1155;22548;-74
2021/04/18 08:47:30;;;;;;;39.50;35.47;;;;;;;10.29;71.25;100806.14;121971;1157;23037;-76
2021/04/18 08:50:14;;;;;;;41.93;37.65;;;;;;;10.28;71.53;100813.23;121637;1155;25175;-73
2021/04/18 08:52:43;;;;;;;41.58;37.08;;;;;;;10.34;71.81;100812.63;122023;1156;25692;-73
2021/04/18 08:55:15;;;;;;;41.33;37.28;;;;;;;10.41;71.68;100807.55;121712;1152;22541;-74
2021/04/18 08:57:43;;;;;;;38.58;34.48;;;;;;;10.48;71.50;100813.03;122259;1152;24444;-74
2021/04/18 09:00:15;;;;;;;34.70;31.10;;;;;;;10.53;71.19;100818.66;122447;1152;23461;-73
2021/04/18 09:02:54;;;;;;;43.55;38.93;;;;;;;10.52;70.77;100809.91;122409;1152;22530;-73
2021/04/18 09:05:25;;;;;;;43.73;39.45;;;;;;;10.50;70.30;100816.37;122336;1152;22544;-75
2021/04/18 09:07:53;;;;;;;41.13;36.90;;;;;;;10.43;70.20;100817.94;122447;1152;22538;-73
2021/04/18 09:10:21;;;;;;;43.30;39.05;;;;;;;10.35;70.28;100806.34;122404;1152;24439;-75
2021/04/18 09:12:58;;;;;;;42.30;38.10;;;;;;;10.42;70.76;100809.20;122235;1152;22587;-72
2021/04/18 09:15:31;;;;;;;33.48;30.03;;;;;;;10.52;70.65;100811.73;122199;1152;22623;-74
2021/04/18 09:18:00;;;;;;;30.88;27.85;;;;;;;10.63;70.70;100811.48;122125;1154;22548;-75
2021/04/18 09:20:29;;;;;;;36.35;32.70;;;;;;;10.66;69.96;100816.43;122040;1155;24846;-74
2021/04/18 09:23:04;;;;;;;39.70;35.50;;;;;;;10.76;70.22;100817.17;121652;1156;24703;-73
2021/04/18 09:25:32;;;;;;;39.03;35.18;;;;;;;10.83;69.78;100817.38;122055;1155;24683;-73
2021/04/18 09:28:01;;;;;;;34.00;30.50;;;;;;;10.86;69.67;100810.92;122064;1155;24839;-73
2021/04/18 09:30:30;;;;;;;32.07;28.83;;;;;;;10.92;69.52;100815.58;122037;1155;22658;-73
2021/04/18 09:33:03;;;;;;;29.58;26.73;;;;;;;11.04;69.70;100815.14;121559;1157;23330;-73
2021/04/18 09:35:34;;;;;;;29.13;26.10;;;;;;;11.11;69.25;100815.33;121526;1155;22999;-73
2021/04/18 09:38:05;;;;;;;27.57;24.90;;;;;;;11.13;68.83;100826.59;122006;1155;22552;-72
2021/04/18 09:40:36;;;;;;;25.73;22.95;;;;;;;11.15;68.37;100821.13;121479;1158;22608;-73
2021/04/18 09:43:07;;;;;;;26.75;24.13;;;;;;;11.18;68.25;100815.52;121444;1158;22630;-72
2021/04/18 09:45:36;;;;;;;31.63;28.43;;;;;;;11.18;67.93;100826.92;121385;1158;22550;-74
2021/04/18 09:48:19;;;;;;;32.80;29.35;;;;;;;11.26;67.99;100826.11;121500;1156;22544;-73
2021/04/18 09:51:03;;;;;;;34.25;30.60;;;;;;;11.24;67.37;100825.45;121599;1155;22539;-74
2021/04/18 09:53:31;;;;;;;32.00;28.53;;;;;;;11.25;67.43;100827.11;121572;1155;22548;-73
2021/04/18 09:56:10;;;;;;;37.78;33.58;;;;;;;11.28;67.13;100824.14;122004;1156;22541;-72
2021/04/18 09:58:43;;;;;;;39.13;34.93;;;;;;;11.31;67.07;100823.83;121837;1152;22543;-72
2021/04/18 10:01:41;;;;;;;36.35;32.45;;;;;;;11.35;66.85;100826.97;122433;1152;22528;-73
2021/04/18 10:04:25;;;;;;;29.47;26.37;;;;;;;11.35;66.87;100821.69;122361;1151;22607;-73
2021/04/18 10:06:54;;;;;;;27.93;24.95;;;;;;;11.37;66.52;100827.65;122188;1151;22528;-71
2021/04/18 10:09:23;;;;;;;30.45;24.63;;;;;;;11.36;66.45;100821.51;122361;1152;22817;-71
2021/04/18 10:12:01;;;;;;;24.37;21.77;;;;;;;11.41;66.79;100826.33;122365;1153;22537;-71
2021/04/18 10:14:29;;;;;;;28.20;24.23;;;;;;;11.50;66.36;100817.44;122166;1152;22535;-72
2021/04/18 10:16:57;;;;;;;28.20;24.73;;;;;;;11.58;66.37;100821.91;122382;1152;24442;-72
2021/04/18 10:19:29;;;;;;;26.80;23.90;;;;;;;11.74;66.50;100820.11;122335;1152;22541;-73
2021/04/18 10:22:10;;;;;;;29.90;25.70;;;;;;;11.92;66.25;100819.16;121994;1156;22540;-72
2021/04/18 10:24:41;;;;;;;25.88;23.13;;;;;;;12.18;66.33;100819.81;121641;1158;22540;-72
2021/04/18 10:27:16;;;;;;;21.45;19.10;;;;;;;12.50;65.44;100818.13;121661;1158;22549;-71
2021/04/18 10:29:45;;;;;;;18.28;16.48;;;;;;;12.50;62.91;100814.66;121516;1155;22556;-73
2021/04/18 10:32:18;;;;;;;16.80;15.17;;;;;;;12.31;62.03;100821.13;121496;1156;22560;-71
2021/04/18 10:34:50;;;;;;;17.83;15.48;;;;;;;12.09;61.44;100822.63;121516;1155;22664;-72
2021/04/18 10:37:19;;;;;;;18.65;16.75;;;;;;;11.96;61.72;100823.97;121584;1155;23474;-71
2021/04/18 10:39:47;;;;;;;17.38;15.80;;;;;;;11.87;61.39;100821.48;121535;1155;23458;-72
2021/04/18 10:42:16;;;;;;;20.43;18.38;;;;;;;11.80;61.65;100818.63;121555;1155;22818;-73
2021/04/18 10:44:45;;;;;;;21.37;19.17;;;;;;;11.81;61.29;100822.10;121491;1158;22970;-71
2021/04/18 10:47:18;;;;;;;22.08;19.80;;;;;;;11.74;61.20;100817.45;121621;1155;22547;-71
2021/04/18 10:49:49;;;;;;;24.23;21.77;;;;;;;11.80;61.74;100831.87;122211;1154;22544;-72
2021/04/18 10:52:17;;;;;;;21.65;19.53;;;;;;;11.98;61.60;100821.14;122144;1155;24426;-71
2021/04/18 10:54:47;;;;;;;23.23;20.68;;;;;;;12.12;61.46;100823.12;122365;1153;24680;-73
2021/04/18 10:57:15;;;;;;;22.40;20.10;;;;;;;12.19;60.87;100820.63;122219;1151;23363;-72
2021/04/18 10:59:43;;;;;;;24.25;21.83;;;;;;;12.19;60.61;100818.80;122200;1152;25214;-72
2021/04/18 11:02:11;;;;;;;24.15;21.77;;;;;;;12.12;60.27;100824.95;122194;1152;23319;-71
2021/04/18 11:04:41;;;;;;;24.48;22.03;;;;;;;11.98;60.23;100826.44;122096;1152;22827;-71
2021/04/18 11:07:10;;;;;;;23.98;21.53;;;;;;;11.88;60.53;100823.95;122164;1152;25089;-71
2021/04/18 11:09:39;;;;;;;25.10;22.53;;;;;;;11.85;60.67;100828.75;121979;1155;22622;-71
2021/04/18 11:12:20;;;;;;;25.15;22.45;;;;;;;11.78;60.87;100832.02;121699;1155;24735;-70
2021/04/18 11:14:49;;;;;;;29.77;26.57;;;;;;;11.69;60.92;100821.58;122041;1155;22534;-72
2021/04/18 11:17:17;;;;;;;28.13;25.13;;;;;;;11.62;61.19;100824.05;122031;1155;22591;-71
2021/04/18 11:19:46;;;;;;;26.70;23.30;;;;;;;11.60;61.56;100826.05;121973;1155;22855;-70
2021/04/18 11:22:14;;;;;;;24.90;22.35;;;;;;;11.56;61.61;100824.70;122034;1156;22541;-71
2021/04/18 11:24:43;;;;;;;27.73;24.85;;;;;;;11.56;62.01;100822.05;121756;1155;22571;-72
2021/04/18 11:27:14;;;;;;;27.83;24.93;;;;;;;11.60;62.16;100823.41;121574;1155;22542;-70